METAR Data
IDs: Format: Raw Decoded Include TAF

Data at: 1447 UTC 21 Apr 2021

METAR for:KCBF (Council Bluffs Muni, IA, US)
Text:KCBF 211435Z AUTO 36017G22KT 10SM FEW036 FEW070 02/M09 A3026 RMK AO2
Temperature: 2.0°C ( 36°F)
Dewpoint: -9.0°C ( 16°F) [RH = 44%]
Pressure (altimeter):30.26 inches Hg (1024.8 mb)
Winds:from the N (360 degrees) at 20 MPH (17 knots; 8.7 m/s) gusting to 25 MPH (22 knots; 11.3 m/s)
Visibility:10 or more sm (16+ km)
Ceiling:at least 12,000 feet AGL
Clouds: few clouds at 3600 feet AGL, few clouds at 7000 feet AGL
QC Flag:automated observation with no human augmentation